Time;durP1;ratioP1;P1;durP2;ratioP2;P2;SDS_P1;SDS_P2;PMS_P1;PMS_P2;Temp;Humidity;BMP_temperature;BMP_pressure;BME280_temperature;BME280_humidity;BME280_pressure;Samples;Min_cycle;Max_cycle;Signal;HPM_P1;HPM_P2
2023/09/12 00:01:32;;;;;;;10.50;5.50;;;19.20;99.90;;;;;;5040988;28;20213;-65
2023/09/12 00:03:59;;;;;;;11.82;5.38;;;19.20;99.90;;;;;;5043686;28;20231;-63
2023/09/12 00:06:25;;;;;;;12.27;5.32;;;19.20;99.90;;;;;;5044134;28;20205;-63
2023/09/12 00:08:52;;;;;;;14.52;5.60;;;19.20;99.90;;;;;;5040896;28;20584;-64
2023/09/12 00:11:19;;;;;;;14.27;5.93;;;19.10;99.90;;;;;;5040940;28;20214;-63
2023/09/12 00:13:46;;;;;;;7.15;5.00;;;19.20;99.90;;;;;;5041725;28;20618;-63
2023/09/12 00:16:12;;;;;;;9.50;5.80;;;19.20;99.90;;;;;;5043957;28;20607;-63
2023/09/12 00:18:42;;;;;;;8.18;5.32;;;19.20;99.90;;;;;;5043570;28;20205;-64
2023/09/12 00:21:09;;;;;;;11.82;5.95;;;19.10;99.90;;;;;;5040391;28;20214;-65
2023/09/12 00:23:36;;;;;;;7.65;5.18;;;19.20;99.90;;;;;;5040397;28;20225;-64
2023/09/12 00:26:02;;;;;;;9.68;5.57;;;19.20;99.90;;;;;;5032612;28;20205;-65
2023/09/12 00:28:29;;;;;;;9.15;5.57;;;19.10;99.90;;;;;;5040596;28;20213;-65
2023/09/12 00:30:56;;;;;;;13.35;5.35;;;19.10;99.90;;;;;;5043240;28;20217;-63
2023/09/12 00:33:22;;;;;;;10.38;5.50;;;19.10;99.90;;;;;;5043267;28;20201;-63
2023/09/12 00:35:50;;;;;;;9.50;5.72;;;19.10;99.90;;;;;;5041598;28;20225;-64
2023/09/12 00:38:17;;;;;;;12.05;5.65;;;19.20;99.90;;;;;;5040593;28;20216;-64
2023/09/12 00:40:44;;;;;;;13.13;5.85;;;19.20;99.90;;;;;;5041210;28;20206;-63
2023/09/12 00:43:11;;;;;;;9.10;5.75;;;19.20;99.90;;;;;;5043128;28;20202;-64
2023/09/12 00:45:38;;;;;;;9.98;5.53;;;19.20;99.90;;;;;;5043041;28;20206;-64
2023/09/12 00:48:06;;;;;;;8.40;5.43;;;19.10;99.90;;;;;;5039966;28;20628;-64
2023/09/12 00:50:34;;;;;;;13.75;5.53;;;19.10;99.90;;;;;;5040211;28;20293;-64
2023/09/12 00:53:04;;;;;;;10.90;5.47;;;19.10;99.90;;;;;;5043000;28;20205;-64
2023/09/12 00:55:33;;;;;;;12.52;5.10;;;19.10;99.90;;;;;;5043092;28;20227;-64
2023/09/12 00:58:02;;;;;;;10.15;5.30;;;19.00;99.90;;;;;;5040197;28;20297;-64
2023/09/12 01:00:29;;;;;;;9.55;5.10;;;19.00;99.90;;;;;;5039952;28;20293;-64
2023/09/12 01:02:56;;;;;;;10.43;5.70;;;19.00;99.90;;;;;;5041939;28;20233;-64
2023/09/12 01:05:23;;;;;;;10.70;5.65;;;19.00;99.90;;;;;;5043477;28;20226;-64
2023/09/12 01:07:50;;;;;;;12.48;5.68;;;18.90;99.90;;;;;;5041564;28;20783;-63
2023/09/12 01:10:18;;;;;;;16.83;5.20;;;19.00;99.90;;;;;;5039881;28;20301;-63
2023/09/12 01:12:45;;;;;;;9.18;5.00;;;18.90;99.90;;;;;;5040503;28;20206;-64
2023/09/12 01:15:14;;;;;;;7.57;5.30;;;19.00;99.90;;;;;;5042775;28;20237;-65
2023/09/12 01:17:42;;;;;;;10.50;5.00;;;18.90;99.90;;;;;;5042473;28;20229;-63
2023/09/12 01:20:12;;;;;;;10.80;5.18;;;18.90;99.90;;;;;;5039202;28;20253;-63
2023/09/12 01:22:57;;;;;;;8.63;5.78;;;18.90;99.90;;;;;;5039206;28;20210;-63
2023/09/12 01:25:53;;;;;;;10.32;5.50;;;18.90;99.90;;;;;;5042738;28;20655;-64
2023/09/12 01:28:25;;;;;;;12.60;5.20;;;18.80;99.90;;;;;;5031042;28;20206;-65
2023/09/12 01:30:54;;;;;;;8.50;5.80;;;18.80;99.90;;;;;;5041050;28;20234;-64
2023/09/12 01:33:21;;;;;;;9.35;5.45;;;18.80;99.90;;;;;;5043105;28;20232;-64
2023/09/12 01:35:48;;;;;;;9.80;5.35;;;18.70;99.90;;;;;;5041098;28;20225;-63
2023/09/12 01:38:15;;;;;;;15.30;5.88;;;18.70;99.90;;;;;;5039439;28;20663;-64
2023/09/12 01:40:47;;;;;;;11.07;5.45;;;18.60;99.90;;;;;;5039919;28;20602;-64
2023/09/12 01:43:17;;;;;;;15.63;5.90;;;18.60;99.90;;;;;;5042939;28;20210;-64
2023/09/12 01:45:48;;;;;;;13.32;5.55;;;18.60;99.90;;;;;;5041942;28;20743;-64
2023/09/12 01:48:19;;;;;;;9.65;5.43;;;18.60;99.90;;;;;;5039618;28;20209;-65
2023/09/12 01:50:46;;;;;;;10.10;5.28;;;18.50;99.90;;;;;;5040250;28;20249;-63
2023/09/12 01:53:14;;;;;;;13.85;5.78;;;18.40;99.90;;;;;;5042703;28;20234;-64
2023/09/12 01:55:44;;;;;;;13.70;5.63;;;18.30;99.90;;;;;;5042430;28;20590;-63
2023/09/12 01:58:11;;;;;;;9.70;4.90;;;18.30;99.90;;;;;;5039248;28;20260;-64
2023/09/12 02:00:39;;;;;;;10.30;5.03;;;18.30;99.90;;;;;;5039205;28;20210;-64
2023/09/12 02:03:07;;;;;;;8.10;5.18;;;18.30;99.90;;;;;;5030894;28;20206;-64
2023/09/12 02:05:34;;;;;;;10.82;5.30;;;18.20;99.90;;;;;;5039210;28;20218;-64
2023/09/12 02:08:01;;;;;;;7.28;5.43;;;18.20;99.90;;;;;;5042042;28;20206;-64
2023/09/12 02:10:28;;;;;;;9.23;5.15;;;18.20;99.90;;;;;;5042320;28;20729;-64
2023/09/12 02:12:54;;;;;;;14.50;5.43;;;18.20;99.90;;;;;;5039702;28;20214;-63
2023/09/12 02:15:21;;;;;;;9.57;5.88;;;18.10;99.90;;;;;;5039139;28;20226;-64
2023/09/12 02:17:50;;;;;;;10.05;5.32;;;18.10;99.90;;;;;;5039985;28;20226;-64
2023/09/12 02:20:18;;;;;;;11.98;5.65;;;18.10;99.90;;;;;;5042386;28;20233;-64
2023/09/12 02:22:46;;;;;;;9.45;5.55;;;18.10;99.90;;;;;;5041334;28;20209;-65
2023/09/12 02:25:12;;;;;;;12.65;5.80;;;18.10;99.90;;;;;;5038926;28;20234;-64
2023/09/12 02:27:39;;;;;;;14.18;5.75;;;18.10;99.90;;;;;;5038883;28;20264;-64
2023/09/12 02:30:07;;;;;;;13.73;5.45;;;18.20;99.90;;;;;;5030976;28;20218;-64
2023/09/12 02:32:34;;;;;;;12.73;6.05;;;18.20;99.90;;;;;;5039909;28;20209;-63
2023/09/12 02:35:02;;;;;;;9.80;5.43;;;18.20;99.90;;;;;;5044952;28;20229;-64
2023/09/12 02:37:30;;;;;;;13.50;5.95;;;18.20;99.90;;;;;;5045358;28;20320;-64
2023/09/12 02:39:57;;;;;;;8.63;5.35;;;18.20;99.90;;;;;;5043373;28;20209;-64
2023/09/12 02:42:24;;;;;;;10.13;5.65;;;18.20;99.90;;;;;;5042126;28;20537;-64
2023/09/12 02:44:52;;;;;;;10.48;5.30;;;18.20;99.90;;;;;;5043323;28;20234;-63
2023/09/12 02:47:19;;;;;;;10.85;5.72;;;18.20;99.90;;;;;;5045398;28;20205;-64
2023/09/12 02:49:45;;;;;;;14.77;5.88;;;18.20;99.90;;;;;;5044831;28;20232;-64
2023/09/12 02:52:12;;;;;;;12.68;5.32;;;18.20;99.90;;;;;;5041905;28;20213;-63
2023/09/12 02:54:40;;;;;;;11.95;5.70;;;18.30;99.90;;;;;;5042327;28;20227;-64
2023/09/12 02:57:07;;;;;;;10.07;5.38;;;18.30;99.90;;;;;;5033942;28;20314;-63
2023/09/12 02:59:33;;;;;;;11.88;5.90;;;18.40;99.90;;;;;;5042032;28;20206;-63
2023/09/12 03:02:00;;;;;;;9.65;5.22;;;18.40;99.90;;;;;;5044894;28;20225;-65
2023/09/12 03:04:28;;;;;;;11.13;5.78;;;18.40;99.90;;;;;;5044890;28;20225;-64
2023/09/12 03:06:54;;;;;;;10.13;5.55;;;18.50;99.90;;;;;;5043171;28;20197;-63
2023/09/12 03:09:22;;;;;;;14.50;5.38;;;18.50;99.90;;;;;;5041943;28;20213;-64
2023/09/12 03:11:50;;;;;;;11.25;5.53;;;18.60;99.90;;;;;;5042745;28;20210;-63
2023/09/12 03:14:17;;;;;;;14.05;5.38;;;18.50;99.90;;;;;;5044900;28;20229;-65
2023/09/12 03:16:44;;;;;;;9.35;5.53;;;18.50;99.90;;;;;;5044635;28;20217;-64
2023/09/12 03:19:11;;;;;;;14.32;5.50;;;18.50;99.90;;;;;;5041677;28;20206;-63
2023/09/12 03:21:38;;;;;;;11.65;5.32;;;18.50;99.90;;;;;;5041505;28;20209;-63
2023/09/12 03:24:06;;;;;;;12.70;5.75;;;18.60;99.90;;;;;;5044905;28;20222;-63
2023/09/12 03:26:35;;;;;;;14.68;5.60;;;18.60;99.90;;;;;;5045234;28;20194;-64
2023/09/12 03:29:03;;;;;;;10.35;5.43;;;18.60;99.90;;;;;;5042269;28;21066;-63
2023/09/12 03:31:30;;;;;;;8.90;5.53;;;18.60;99.90;;;;;;5041311;28;20669;-64
2023/09/12 03:33:57;;;;;;;11.38;5.82;;;18.60;99.90;;;;;;5042949;28;20303;-63
2023/09/12 03:36:24;;;;;;;10.23;5.60;;;18.60;99.90;;;;;;5044927;28;20244;-63
2023/09/12 03:38:50;;;;;;;12.23;5.90;;;18.60;99.90;;;;;;5043469;28;20229;-63
2023/09/12 03:41:17;;;;;;;15.80;5.75;;;18.60;99.90;;;;;;5046111;28;20683;-63
2023/09/12 03:43:44;;;;;;;9.95;5.07;;;18.60;99.90;;;;;;5043506;28;20688;-64
2023/09/12 03:46:12;;;;;;;12.20;5.72;;;18.60;99.90;;;;;;5041601;28;20210;-64
2023/09/12 03:48:39;;;;;;;9.77;5.30;;;18.60;99.90;;;;;;5041100;28;20221;-64
2023/09/12 03:51:06;;;;;;;13.85;5.60;;;18.60;99.90;;;;;;5044387;28;20328;-65
2023/09/12 03:53:33;;;;;;;12.95;6.07;;;18.50;99.90;;;;;;5044111;28;20248;-64
2023/09/12 03:56:00;;;;;;;8.68;5.82;;;18.50;99.90;;;;;;5041787;28;20242;-63
2023/09/12 03:58:27;;;;;;;10.52;6.10;;;18.60;99.90;;;;;;5040642;28;20222;-64
2023/09/12 04:00:54;;;;;;;15.30;6.22;;;18.50;99.90;;;;;;5042342;28;20202;-64
2023/09/12 04:03:22;;;;;;;11.70;6.10;;;18.50;99.90;;;;;;5044072;28;20224;-64
2023/09/12 04:05:50;;;;;;;9.80;5.90;;;18.50;99.90;;;;;;5043439;28;20714;-64
2023/09/12 04:08:17;;;;;;;11.95;5.80;;;18.40;99.90;;;;;;5041088;28;20205;-64
2023/09/12 04:10:44;;;;;;;13.02;6.15;;;18.30;99.90;;;;;;5040520;28;20691;-63
2023/09/12 04:13:11;;;;;;;14.30;5.90;;;18.40;99.90;;;;;;5043441;28;20198;-63
2023/09/12 04:15:38;;;;;;;11.30;5.95;;;18.40;99.90;;;;;;5043977;28;20201;-63
2023/09/12 04:18:05;;;;;;;12.10;5.90;;;18.40;99.90;;;;;;5040723;28;20699;-63
2023/09/12 04:20:33;;;;;;;10.80;5.75;;;18.30;99.90;;;;;;5040591;28;20198;-64
2023/09/12 04:23:02;;;;;;;9.00;5.85;;;18.20;99.90;;;;;;5042511;28;20198;-63
2023/09/12 04:25:29;;;;;;;11.15;5.65;;;18.30;99.90;;;;;;5043589;28;20230;-64
2023/09/12 04:27:56;;;;;;;9.95;5.82;;;18.40;99.90;;;;;;5041729;28;20194;-64
2023/09/12 04:30:23;;;;;;;11.23;5.80;;;18.30;99.90;;;;;;5040205;28;20211;-63
2023/09/12 04:32:49;;;;;;;9.20;5.72;;;18.30;99.90;;;;;;5040552;28;20251;-63
2023/09/12 04:35:17;;;;;;;13.77;5.35;;;18.40;99.90;;;;;;5043425;28;20487;-63
2023/09/12 04:37:45;;;;;;;11.32;6.63;;;18.50;99.90;;;;;;5043253;28;20222;-63
2023/09/12 04:40:12;;;;;;;8.00;5.43;;;18.60;99.90;;;;;;5039903;28;20206;-63
2023/09/12 04:42:39;;;;;;;14.50;5.40;;;18.60;99.90;;;;;;5039642;28;20299;-64
2023/09/12 04:45:06;;;;;;;10.93;5.72;;;18.60;99.90;;;;;;5042708;28;20229;-64
2023/09/12 04:47:33;;;;;;;14.63;6.05;;;18.60;99.90;;;;;;5043561;28;20225;-63
2023/09/12 04:50:01;;;;;;;13.60;6.50;;;18.70;99.90;;;;;;5041339;28;20206;-64
2023/09/12 04:52:27;;;;;;;11.77;5.82;;;18.80;99.90;;;;;;5039843;28;20288;-64
2023/09/12 04:54:55;;;;;;;15.85;5.90;;;18.80;99.90;;;;;;5040595;28;20232;-64
2023/09/12 04:57:22;;;;;;;8.48;5.78;;;19.00;99.90;;;;;;5043544;28;20726;-65
2023/09/12 04:59:49;;;;;;;11.23;6.18;;;19.00;99.90;;;;;;5042569;28;20201;-63
2023/09/12 05:02:16;;;;;;;10.23;5.80;;;19.10;99.90;;;;;;5039899;28;20261;-64
2023/09/12 05:04:43;;;;;;;13.95;6.07;;;19.10;99.90;;;;;;5039379;28;20221;-64
2023/09/12 05:07:09;;;;;;;11.65;6.38;;;19.10;99.90;;;;;;5031325;28;20651;-65
2023/09/12 05:09:36;;;;;;;12.40;5.80;;;19.10;99.90;;;;;;5039269;28;20228;-64
2023/09/12 05:12:05;;;;;;;13.20;6.07;;;19.20;99.90;;;;;;5041921;28;20213;-64
2023/09/12 05:14:32;;;;;;;14.15;6.22;;;19.30;99.90;;;;;;5042560;28;20321;-64
2023/09/12 05:16:58;;;;;;;10.48;5.47;;;19.40;99.90;;;;;;5041033;28;20226;-64
2023/09/12 05:19:26;;;;;;;12.48;5.85;;;19.50;99.90;;;;;;5039505;28;20600;-63
2023/09/12 05:21:53;;;;;;;14.10;6.28;;;19.60;99.90;;;;;;5040617;28;20285;-64
2023/09/12 05:24:19;;;;;;;12.40;6.03;;;19.60;99.90;;;;;;5042327;28;20225;-64
2023/09/12 05:26:47;;;;;;;12.85;5.35;;;19.80;99.90;;;;;;5042384;28;20681;-63
2023/09/12 05:29:15;;;;;;;9.85;5.75;;;19.80;99.90;;;;;;5039271;28;20202;-63
2023/09/12 05:31:42;;;;;;;12.80;5.78;;;19.90;99.90;;;;;;5038985;28;20583;-63
2023/09/12 05:34:09;;;;;;;10.75;5.10;;;20.00;99.90;;;;;;5042113;28;20225;-64
2023/09/12 05:36:35;;;;;;;9.50;5.50;;;20.10;99.90;;;;;;5042268;28;20215;-63
2023/09/12 05:39:02;;;;;;;13.25;5.95;;;20.20;99.90;;;;;;5033696;28;20233;-64
2023/09/12 05:41:29;;;;;;;14.75;5.53;;;20.40;99.90;;;;;;5042339;28;20213;-64
2023/09/12 05:43:56;;;;;;;12.25;5.95;;;20.50;99.90;;;;;;5040557;28;20222;-63
2023/09/12 05:46:24;;;;;;;10.57;6.05;;;20.60;99.90;;;;;;5039004;28;20202;-64
2023/09/12 05:48:50;;;;;;;11.07;5.63;;;20.60;99.90;;;;;;5039196;28;20208;-64
2023/09/12 05:51:17;;;;;;;11.15;5.50;;;20.70;99.90;;;;;;5042357;28;20205;-65
2023/09/12 05:53:44;;;;;;;10.80;5.75;;;20.90;99.90;;;;;;5041595;28;20229;-64
2023/09/12 05:56:10;;;;;;;17.58;6.15;;;21.20;99.90;;;;;;5038639;28;20241;-65
2023/09/12 05:58:41;;;;;;;11.73;5.63;;;21.90;99.90;;;;;;5038688;28;20233;-63
2023/09/12 06:01:08;;;;;;;15.50;5.40;;;22.90;99.90;;;;;;5041597;28;20416;-64
2023/09/12 06:03:36;;;;;;;12.52;5.07;;;23.90;99.90;;;;;;5041745;28;20663;-64
2023/09/12 06:06:03;;;;;;;11.20;5.05;;;24.70;99.90;;;;;;5036417;28;20450;-64
2023/09/12 06:08:29;;;;;;;9.80;4.85;;;25.40;99.90;;;;;;5046262;28;20255;-65
2023/09/12 06:10:56;;;;;;;11.52;5.07;;;26.00;99.90;;;;;;5044600;28;20319;-65
2023/09/12 06:13:24;;;;;;;16.58;5.15;;;26.50;99.90;;;;;;5042429;28;20233;-68
2023/09/12 06:15:51;;;;;;;9.10;4.88;;;26.80;99.90;;;;;;5043159;28;20243;-67
2023/09/12 06:18:18;;;;;;;13.68;5.15;;;26.80;99.90;;;;;;5045497;28;20221;-67
2023/09/12 06:20:46;;;;;;;13.32;5.38;;;26.50;99.90;;;;;;5045887;28;20284;-65
2023/09/12 06:23:13;;;;;;;10.48;5.50;;;26.00;99.90;;;;;;5034016;28;20198;-65
2023/09/12 06:25:39;;;;;;;8.05;5.28;;;25.50;99.90;;;;;;5042512;28;20243;-64
2023/09/12 06:28:09;;;;;;;14.52;5.75;;;24.90;99.90;;;;;;5044839;28;20210;-64
2023/09/12 06:30:36;;;;;;;14.43;5.13;;;24.60;99.90;;;;;;5045742;28;20213;-63
2023/09/12 06:33:03;;;;;;;13.52;5.10;;;24.70;99.90;;;;;;5043779;28;20210;-64
2023/09/12 06:35:30;;;;;;;12.55;5.10;;;25.40;99.90;;;;;;5042604;28;20206;-64
2023/09/12 06:37:58;;;;;;;11.23;4.55;;;25.80;99.90;;;;;;5043517;28;20226;-63
2023/09/12 06:40:25;;;;;;;10.27;4.88;;;25.60;99.90;;;;;;5045715;28;20208;-63
2023/09/12 06:42:51;;;;;;;7.97;5.18;;;25.50;99.90;;;;;;5045460;28;20205;-63
2023/09/12 06:45:18;;;;;;;8.88;4.63;;;25.40;99.90;;;;;;5042714;28;20253;-63
2023/09/12 06:47:45;;;;;;;12.57;5.38;;;25.10;99.90;;;;;;5043173;28;20274;-64
2023/09/12 06:50:11;;;;;;;10.52;4.70;;;25.00;99.90;;;;;;5046144;28;20619;-64
2023/09/12 06:52:38;;;;;;;8.27;5.18;;;25.10;99.90;;;;;;5045484;28;20206;-63
2023/09/12 06:55:07;;;;;;;12.98;4.65;;;25.40;99.90;;;;;;5043063;28;20221;-64
2023/09/12 06:57:34;;;;;;;10.77;5.22;;;26.10;99.90;;;;;;5042384;28;20226;-64
2023/09/12 07:00:00;;;;;;;11.43;5.68;;;26.60;99.90;;;;;;5044521;28;20572;-64
2023/09/12 07:02:28;;;;;;;13.65;5.22;;;27.20;99.90;;;;;;5045426;28;20201;-64
2023/09/12 07:04:56;;;;;;;10.63;5.22;;;27.70;99.90;;;;;;5045143;28;20719;-64
2023/09/12 07:07:23;;;;;;;10.82;4.68;;;27.80;99.90;;;;;;5041551;28;20206;-64
2023/09/12 07:09:49;;;;;;;11.20;4.80;;;27.80;99.90;;;;;;5041334;28;20620;-64
2023/09/12 07:12:17;;;;;;;8.75;4.53;;;27.80;99.90;;;;;;5045169;28;20202;-64
2023/09/12 07:14:44;;;;;;;9.80;4.85;;;28.00;99.90;;;;;;5045793;28;20233;-64
2023/09/12 07:17:11;;;;;;;12.90;5.20;;;28.10;99.90;;;;;;5044069;28;20591;-64
2023/09/12 07:19:38;;;;;;;11.25;4.78;;;28.20;99.90;;;;;;5043824;28;20218;-64
2023/09/12 07:22:05;;;;;;;13.38;4.97;;;28.40;99.90;;;;;;5043493;28;20247;-64
2023/09/12 07:24:31;;;;;;;14.95;4.97;;;29.30;99.90;;;;;;5044506;28;20225;-64
2023/09/12 07:26:58;;;;;;;11.77;4.55;;;30.70;99.90;;;;;;5042960;28;20613;-63
2023/09/12 07:29:27;;;;;;;10.60;4.30;;;32.10;99.90;;;;;;5041164;28;20241;-63
2023/09/12 07:31:54;;;;;;;9.60;5.00;;;33.40;99.80;;;;;;5041268;28;20699;-64
2023/09/12 07:34:21;;;;;;;13.40;4.95;;;34.50;96.70;;;;;;5044263;28;20252;-64
2023/09/12 07:36:47;;;;;;;7.13;4.35;;;35.50;94.40;;;;;;5044639;28;20526;-64
2023/09/12 07:39:14;;;;;;;6.65;4.00;;;36.20;92.10;;;;;;5032815;28;20226;-64
2023/09/12 07:41:41;;;;;;;10.63;4.32;;;36.90;90.40;;;;;;5040939;28;20289;-63
2023/09/12 07:44:10;;;;;;;15.25;4.65;;;37.80;86.40;;;;;;5058330;22;20225;-56
2023/09/12 07:46:38;;;;;;;62.58;7.72;;;38.20;81.00;;;;;;5044552;28;20276;-56
2023/09/12 07:49:05;;;;;;;18.30;5.40;;;38.40;79.00;;;;;;5042007;28;20213;-57
2023/09/12 07:51:32;;;;;;;8.10;5.10;;;38.00;78.30;;;;;;5040811;28;20210;-55
2023/09/12 07:53:58;;;;;;;20.00;6.05;;;37.00;80.00;;;;;;5037811;28;20222;-55
2023/09/12 07:56:25;;;;;;;9.88;5.45;;;35.90;83.60;;;;;;5023974;28;20332;-56
2023/09/12 07:58:52;;;;;;;13.70;5.45;;;35.60;85.20;;;;;;5023881;28;20245;-56
2023/09/12 08:01:19;;;;;;;11.73;5.25;;;35.60;84.80;;;;;;5020416;28;20203;-56
2023/09/12 08:03:47;;;;;;;11.43;5.65;;;35.40;85.10;;;;;;5020513;28;20226;-56
2023/09/12 08:06:14;;;;;;;10.10;5.20;;;34.90;85.90;;;;;;5023969;28;20233;-55
2023/09/12 08:08:40;;;;;;;10.32;4.75;;;34.40;87.30;;;;;;5023966;28;20208;-58
2023/09/12 08:11:07;;;;;;;12.32;5.43;;;33.90;87.70;;;;;;5021760;28;20710;-58
2023/09/12 08:13:34;;;;;;;13.45;5.55;;;33.50;89.20;;;;;;5020875;28;20541;-58
2023/09/12 08:16:00;;;;;;;8.35;5.18;;;33.10;90.30;;;;;;5022154;28;20211;-58
2023/09/12 08:18:29;;;;;;;6.47;4.78;;;32.70;90.80;;;;;;5024074;28;20588;-58
2023/09/12 08:20:57;;;;;;;7.50;5.28;;;32.40;91.30;;;;;;5022711;28;20272;-58
2023/09/12 08:23:24;;;;;;;9.95;5.60;;;32.20;91.90;;;;;;5020352;28;20199;-60
2023/09/12 08:25:51;;;;;;;13.15;5.40;;;31.80;92.30;;;;;;5020487;28;20238;-57
2023/09/12 08:28:18;;;;;;;10.73;5.15;;;31.70;92.70;;;;;;5024029;28;20198;-58
2023/09/12 08:30:46;;;;;;;8.75;5.50;;;31.40;93.20;;;;;;5023085;28;20207;-58
2023/09/12 08:33:12;;;;;;;15.52;5.68;;;31.10;93.70;;;;;;5020221;28;20300;-59
2023/09/12 08:35:39;;;;;;;12.40;6.20;;;30.90;93.90;;;;;;5020173;28;20712;-58
2023/09/12 08:38:08;;;;;;;7.55;5.45;;;30.70;94.30;;;;;;5022237;28;20219;-57
2023/09/12 08:40:36;;;;;;;10.40;5.30;;;30.60;94.70;;;;;;5023710;28;20202;-58
2023/09/12 08:43:04;;;;;;;11.35;4.97;;;30.40;95.30;;;;;;5021814;28;20244;-60
2023/09/12 08:45:31;;;;;;;9.57;5.72;;;30.40;95.60;;;;;;5020188;28;20242;-59
2023/09/12 08:48:00;;;;;;;8.70;6.00;;;30.50;95.40;;;;;;5021117;28;20673;-60
2023/09/12 08:50:30;;;;;;;9.40;5.15;;;30.40;95.60;;;;;;5024072;28;20467;-58
2023/09/12 08:52:57;;;;;;;10.70;5.78;;;30.50;96.00;;;;;;5022790;28;20225;-59
2023/09/12 08:55:26;;;;;;;9.40;5.30;;;30.50;95.70;;;;;;5020451;28;20223;-57
2023/09/12 08:57:55;;;;;;;9.07;5.50;;;30.40;96.20;;;;;;5019678;28;20566;-59
2023/09/12 09:00:23;;;;;;;7.55;5.45;;;30.30;96.50;;;;;;5023566;28;20202;-60
2023/09/12 09:02:51;;;;;;;14.70;5.93;;;30.10;97.00;;;;;;5023111;28;20206;-60
2023/09/12 09:05:19;;;;;;;13.50;6.13;;;30.10;97.40;;;;;;5023293;28;20242;-61
2023/09/12 09:07:46;;;;;;;9.13;5.55;;;30.00;97.40;;;;;;5023478;28;20206;-60
2023/09/12 09:10:16;;;;;;;10.20;5.90;;;30.00;97.50;;;;;;5019959;28;20668;-59
2023/09/12 09:12:47;;;;;;;9.10;6.20;;;29.90;98.10;;;;;;5019580;28;20206;-60
2023/09/12 09:15:24;;;;;;;8.85;5.22;;;29.80;98.40;;;;;;5022650;28;20222;-58
2023/09/12 09:17:52;;;;;;;7.70;5.40;;;29.90;98.20;;;;;;5022913;28;20667;-60
2023/09/12 09:20:27;;;;;;;13.27;5.65;;;29.90;98.40;;;;;;5020116;28;20594;-59
2023/09/12 09:23:00;;;;;;;10.27;5.78;;;29.90;98.20;;;;;;5019227;28;20664;-58
2023/09/12 09:25:27;;;;;;;9.90;5.80;;;29.90;98.20;;;;;;5023138;28;20225;-59
2023/09/12 09:27:55;;;;;;;9.65;5.60;;;29.90;98.20;;;;;;5022434;28;20237;-59
2023/09/12 09:30:42;;;;;;;11.68;6.30;;;29.90;98.00;;;;;;5019581;28;20213;-59
2023/09/12 09:33:10;;;;;;;8.13;5.53;;;29.90;98.00;;;;;;5021436;28;20206;-59
2023/09/12 09:35:38;;;;;;;7.93;6.07;;;29.80;98.00;;;;;;5023091;28;20226;-59
2023/09/12 09:38:06;;;;;;;9.95;6.20;;;29.70;98.20;;;;;;5021166;28;20268;-59
2023/09/12 09:40:34;;;;;;;8.77;5.32;;;29.70;98.40;;;;;;5019033;28;20203;-58
2023/09/12 09:43:03;;;;;;;9.18;6.25;;;29.80;98.50;;;;;;5019955;28;20203;-59
2023/09/12 09:45:31;;;;;;;8.05;5.82;;;29.90;98.40;;;;;;5022139;28;20663;-58
2023/09/12 09:47:59;;;;;;;7.25;5.65;;;29.90;98.20;;;;;;5021868;28;20272;-58
2023/09/12 09:50:26;;;;;;;8.73;6.00;;;30.00;98.20;;;;;;5019497;28;20205;-60
2023/09/12 09:52:56;;;;;;;8.25;5.78;;;30.00;98.20;;;;;;5018932;28;20211;-59
2023/09/12 09:55:22;;;;;;;9.30;6.28;;;30.10;98.10;;;;;;5019055;28;20681;-59
2023/09/12 09:57:51;;;;;;;10.98;5.78;;;30.20;97.50;;;;;;5019124;28;20217;-59
2023/09/12 10:00:20;;;;;;;9.95;5.43;;;30.10;97.00;;;;;;5022561;28;20218;-59
2023/09/12 10:02:49;;;;;;;6.80;5.85;;;30.00;97.10;;;;;;5022233;28;20199;-59
2023/09/12 10:05:17;;;;;;;8.75;5.53;;;29.90;97.50;;;;;;5019426;28;20218;-58
2023/09/12 10:07:51;;;;;;;7.43;6.70;;;29.90;97.90;;;;;;5019045;28;20199;-59
2023/09/12 10:10:19;;;;;;;8.07;5.88;;;30.00;98.10;;;;;;5022027;28;20199;-58
2023/09/12 10:12:51;;;;;;;6.72;5.88;;;30.00;97.90;;;;;;5022260;28;20605;-59
2023/09/12 10:15:22;;;;;;;9.43;6.07;;;30.00;97.40;;;;;;5019172;28;20222;-59
2023/09/12 10:17:54;;;;;;;8.80;6.05;;;30.10;97.40;;;;;;5019270;28;20218;-59
2023/09/12 10:20:25;;;;;;;7.45;5.82;;;30.30;97.50;;;;;;5018755;28;20333;-59
2023/09/12 10:22:59;;;;;;;7.82;5.40;;;30.30;97.40;;;;;;5018549;28;20210;-58
2023/09/12 10:25:26;;;;;;;6.85;5.30;;;30.50;97.20;;;;;;5019089;28;20235;-58
2023/09/12 10:27:55;;;;;;;8.70;5.65;;;30.60;96.00;;;;;;5019015;28;20524;-58
2023/09/12 10:30:24;;;;;;;8.20;5.50;;;30.70;95.90;;;;;;5018752;28;20199;-58
2023/09/12 10:32:51;;;;;;;8.23;5.28;;;30.70;96.00;;;;;;5018249;28;20239;-57
2023/09/12 10:35:18;;;;;;;7.60;5.50;;;30.80;95.60;;;;;;5021670;28;20218;-56
2023/09/12 10:37:49;;;;;;;9.15;5.45;;;30.80;96.20;;;;;;5022379;28;20691;-59
2023/09/12 10:40:17;;;;;;;9.75;5.78;;;30.70;95.20;;;;;;5019000;28;20223;-56
2023/09/12 10:42:45;;;;;;;8.32;5.68;;;30.60;96.20;;;;;;5018237;28;20210;-56
2023/09/12 10:45:13;;;;;;;10.48;6.63;;;30.60;96.60;;;;;;5020898;28;20242;-57
2023/09/12 10:47:41;;;;;;;10.85;5.90;;;30.80;97.60;;;;;;5022052;28;20297;-57
2023/09/12 10:50:08;;;;;;;8.70;5.75;;;30.70;97.40;;;;;;5020564;28;20218;-57
2023/09/12 10:52:39;;;;;;;8.05;5.93;;;30.70;97.50;;;;;;5018640;28;20229;-56
2023/09/12 10:55:07;;;;;;;8.70;6.05;;;30.60;97.70;;;;;;5023578;28;20235;-58
2023/09/12 10:57:34;;;;;;;10.32;5.68;;;30.50;96.90;;;;;;5025279;28;20210;-60
2023/09/12 11:00:12;;;;;;;12.43;5.47;;;30.50;96.40;;;;;;5024652;28;20241;-57
2023/09/12 11:02:41;;;;;;;12.15;5.55;;;30.40;96.70;;;;;;5021749;28;20210;-56
2023/09/12 11:05:52;;;;;;;8.63;5.47;;;30.40;96.00;;;;;;5023617;28;20226;-57
2023/09/12 11:08:19;;;;;;;7.93;5.43;;;30.60;96.10;;;;;;5022302;28;20245;-58
2023/09/12 11:10:46;;;;;;;11.40;5.28;;;30.70;96.30;;;;;;5021867;28;20199;-56
2023/09/12 11:13:18;;;;;;;11.60;5.38;;;30.70;96.00;;;;;;5023996;28;20681;-57
2023/09/12 11:16:13;;;;;;;9.70;5.15;;;30.60;95.50;;;;;;5025229;28;20222;-58
2023/09/12 11:19:13;;;;;;;7.55;5.20;;;30.70;95.20;;;;;;5021537;28;20307;-56
2023/09/12 11:21:41;;;;;;;10.40;5.30;;;30.90;94.50;;;;;;5021832;28;20210;-58
2023/09/12 11:24:08;;;;;;;5.90;5.00;;;31.10;94.20;;;;;;5022803;28;20717;-62
2023/09/12 11:26:35;;;;;;;6.20;4.95;;;31.40;93.40;;;;;;5025486;28;20214;-60
2023/09/12 11:29:11;;;;;;;8.15;5.13;;;31.50;92.60;;;;;;5023903;28;20202;-60
2023/09/12 11:31:41;;;;;;;10.85;5.55;;;31.70;92.70;;;;;;5021655;28;20234;-61
2023/09/12 11:34:09;;;;;;;6.00;5.40;;;31.90;93.00;;;;;;5022875;28;20397;-61
2023/09/12 11:36:41;;;;;;;8.82;4.80;;;32.00;92.80;;;;;;5024329;28;20230;-60
2023/09/12 11:39:24;;;;;;;7.95;5.15;;;32.20;92.30;;;;;;5022928;28;20226;-60
2023/09/12 11:41:51;;;;;;;12.30;5.88;;;32.00;91.00;;;;;;5021478;28;20202;-60
2023/09/12 11:44:19;;;;;;;8.68;4.82;;;31.90;91.40;;;;;;5023463;28;20230;-60
2023/09/12 11:46:48;;;;;;;8.70;5.22;;;31.70;91.30;;;;;;5024476;28;20653;-59
2023/09/12 11:49:16;;;;;;;10.32;5.72;;;31.60;92.00;;;;;;5021771;28;20217;-61
2023/09/12 11:51:49;;;;;;;7.97;5.60;;;31.70;92.10;;;;;;5021044;28;20212;-61
2023/09/12 11:54:18;;;;;;;9.27;5.15;;;31.80;91.90;;;;;;5023556;28;20226;-60
2023/09/12 11:56:45;;;;;;;12.27;5.00;;;31.60;91.40;;;;;;5024499;28;20297;-59
2023/09/12 11:59:12;;;;;;;7.13;5.03;;;31.60;91.20;;;;;;5022306;28;20227;-61
2023/09/12 12:01:39;;;;;;;9.25;4.72;;;31.60;90.50;;;;;;5020820;28;20241;-60
2023/09/12 12:04:06;;;;;;;9.50;4.85;;;31.70;90.50;;;;;;5021588;28;20230;-59
2023/09/12 12:06:35;;;;;;;11.57;5.05;;;32.00;90.20;;;;;;5024286;28;20203;-60
2023/09/12 12:09:04;;;;;;;7.70;4.90;;;32.20;90.90;;;;;;5023677;28;20264;-60
2023/09/12 12:11:32;;;;;;;12.00;5.00;;;32.30;90.50;;;;;;5020850;28;20207;-61
2023/09/12 12:13:58;;;;;;;7.40;4.38;;;32.20;90.60;;;;;;5020312;28;20218;-60
2023/09/12 12:16:26;;;;;;;8.98;4.88;;;32.10;90.10;;;;;;5024245;28;20251;-61
2023/09/12 12:18:55;;;;;;;7.07;4.68;;;32.10;90.50;;;;;;5024152;28;20289;-61
2023/09/12 12:21:22;;;;;;;6.28;5.13;;;32.20;90.00;;;;;;5021041;28;20253;-61
2023/09/12 12:23:58;;;;;;;5.75;4.50;;;32.10;89.70;;;;;;5020355;28;20207;-61
2023/09/12 12:26:27;;;;;;;8.95;4.38;;;32.20;89.40;;;;;;5020758;28;20486;-62
2023/09/12 12:28:53;;;;;;;6.57;5.10;;;32.30;90.00;;;;;;5020302;28;20246;-60
2023/09/12 12:31:21;;;;;;;6.95;4.25;;;32.40;88.60;;;;;;5023238;28;20203;-58
2023/09/12 12:33:53;;;;;;;12.48;4.40;;;32.40;88.70;;;;;;5022354;28;20533;-62
2023/09/12 12:36:20;;;;;;;7.53;4.50;;;32.40;87.00;;;;;;5024520;28;20211;-62
2023/09/12 12:38:48;;;;;;;6.03;4.47;;;32.40;86.50;;;;;;5020251;28;20211;-60
2023/09/12 12:41:16;;;;;;;7.28;4.70;;;32.40;84.40;;;;;;5022161;28;20337;-62
2023/09/12 12:43:44;;;;;;;6.13;4.43;;;32.30;84.00;;;;;;5024990;28;20207;-61
2023/09/12 12:46:13;;;;;;;7.10;3.88;;;32.20;84.20;;;;;;5021561;28;20222;-61